Latest Coastal Weather Observations for Orbost

IDV60701

Issued at 10:15 pm EST Wednesday 23 April 2014 (issued every 10 minutes, with the page automatically refreshed every 10 minutes)

About coastal observations | Map of coastal stations | Coastal observations for VIC | Marine services | Other Formats
Station Details ID: 084145 Name: ORBOST Lat: -37.69 Lon: 148.47 Height: 62.65 m
Data from the previous 72 hours. | See also: Recent months at Orbost
Date/Time
EST
Temp

°C
Wind Pressure Rain
since 9am
mm
Weather Cloud Vis
km
Sea
Height
m
Swell
Dir
 
Speed
knots
Gust
knots
hPa Trend Height
m
Period
s
Dir
23/10:00pm 13.4 NNW 2 2 1013.1 - 0.0 - - - - - - -
23/09:30pm 14.4 N 2 3 1013.3 - 0.0 - - - - - - -
23/09:00pm 14.9 N 3 4 1013.3 - 0.0 - - - - - - -
23/08:30pm 15.2 N 3 3 1013.8 - 0.0 - - - - - - -
23/08:00pm 15.0 NW 1 2 1013.8 - 0.0 - - - - - - -
23/07:30pm 14.8 NNW 2 2 1013.8 - 0.0 - - - - - - -
23/07:00pm 15.3 N 2 2 1013.7 - 0.0 - - - - - - -
23/06:30pm 15.5 NW 1 2 1013.7 - 0.0 - - - - - - -
23/06:00pm 16.1 CALM 0 1 1013.5 - 0.0 - - - - - - -
23/05:30pm 16.5 SSW 2 2 1013.6 - 0.0 - - - - - - -
23/05:00pm 16.9 S 2 3 1013.3 - 0.0 - - - - - - -
23/04:30pm 17.1 SSE 2 5 1013.0 - 0.0 - - - - - - -
23/04:00pm 17.6 S 4 5 1012.8 - 0.0 - - - - - - -
23/03:30pm 18.2 SSE 3 6 1012.9 - 0.0 - - - - - - -
23/03:00pm 18.6 SSE 4 9 1012.7 - 0.0 - - - - - - -
23/02:30pm 18.9 S 5 9 1012.8 - 0.0 - - - - - - -
23/02:00pm 19.0 S 5 9 1012.8 - 0.0 - - - - - - -
23/01:30pm 18.7 S 5 7 1013.1 - 0.0 - - - - - - -
23/01:00pm 20.5 W 1 6 1013.3 - 0.0 - - - - - - -
23/12:30pm 18.9 ESE 2 5 1014.0 - 0.0 - - - - - - -
23/12:00pm 18.8 E 3 4 1014.4 - 0.0 - - - - - - -
23/11:30am 17.3 S 2 3 1015.0 - 0.0 - - - - - - -
23/11:00am 17.2 SSW 3 4 1015.4 - 0.0 - - - - - - -
23/10:30am 17.3 NE 2 3 1015.9 - 0.0 - - - - - - -
23/10:00am 17.3 E 2 3 1016.0 - 0.0 - - - - - - -
23/09:30am 15.8 SE 2 4 1016.4 - 0.0 - - - - - - -
23/09:00am 15.0 ESE 1 2 1016.4 - 2.6 - - - - - - -
23/08:30am 14.4 CALM 0 0 1016.7 - 2.6 - - - - - - -
23/08:00am 14.1 NNW 1 2 1016.6 - 2.6 - - - - - - -
23/07:30am 13.8 CALM 0 0 1016.5 - 2.6 - - - - - - -
23/07:00am 13.6 CALM 0 1 1016.2 - 2.6 - - - - - - -
23/06:30am 13.5 CALM 0 1 1016.3 - 2.6 - - - - - - -
23/06:00am 13.6 CALM 0 0 1016.2 - 2.6 - - - - - - -
23/05:30am 13.8 CALM 0 0 1016.5 - 2.6 - - - - - - -
23/05:00am 13.7 CALM 0 0 1016.4 - 2.6 - - - - - - -
23/04:30am 13.9 N 1 2 1016.6 - 2.6 - - - - - - -
23/04:00am 14.0 CALM 0 0 1016.5 - 2.6 - - - - - - -
23/03:30am 14.0 CALM 0 0 1016.8 - 2.6 - - - - - - -
23/03:00am 14.1 CALM 0 0 1016.7 - 2.6 - - - - - - -
23/02:30am 14.0 CALM 0 0 1017.1 - 2.6 - - - - - - -
23/02:00am 14.0 CALM 0 0 1017.1 - 2.6 - - - - - - -
23/01:30am 13.8 N 1 2 1017.4 - 2.4 - - - - - - -
23/01:00am 13.9 NNW 1 2 1017.4 - 2.4 - - - - - - -
23/12:30am 14.4 W 1 3 1017.9 - 1.4 - - - - - - -
23/12:00am 14.7 NW 0 2 1017.8 - 0.0 - - - - - - -
 
Date/Time
EST
Temp

°C
Wind Pressure Rain
since 9am
mm
Weather Cloud Vis
km
Sea
Height
m
Swell
Dir
 
Speed
knots
Gust
knots
hPa Trend Height
m
Period
s
Dir
22/11:30pm 14.9 W 2 4 1017.7 - 0.0 - - - - - - -
22/11:00pm 14.9 CALM 0 2 1017.6 - 0.0 - - - - - - -
22/10:30pm 14.7 N 2 3 1017.8 - 0.0 - - - - - - -
22/10:00pm 14.8 WNW 1 2 1017.8 - 0.0 - - - - - - -
22/09:30pm 14.5 WNW 2 3 1017.8 - 0.0 - - - - - - -
22/09:00pm 14.6 NW 2 3 1017.5 - 0.0 - - - - - - -
22/08:30pm 15.5 WNW 2 4 1017.2 - 0.0 - - - - - - -
22/08:00pm 15.3 N 3 4 1016.9 - 0.0 - - - - - - -
22/07:30pm 15.4 WSW 3 5 1016.8 - 0.0 - - - - - - -
22/07:00pm 16.2 S 2 4 1016.2 - 0.0 - - - - - - -
22/06:30pm 16.5 S 2 5 1015.7 - 0.0 - - - - - - -
22/06:00pm 16.1 SSW 3 5 1015.1 - 0.0 - - - - - - -
22/05:30pm 16.4 ESE 2 4 1014.3 - 0.0 - - - - - - -
22/05:00pm 17.2 SSE 2 4 1013.6 - 0.0 - - - - - - -
22/04:30pm 17.7 ESE 2 5 1013.5 - 0.0 - - - - - - -
22/04:00pm 18.1 ESE 2 3 1013.4 - 0.0 - - - - - - -
22/03:30pm 18.6 E 2 3 1013.6 - 0.0 - - - - - - -
22/03:00pm 19.2 ESE 2 5 1013.6 - 0.0 - - - - - - -
22/02:30pm 18.7 ESE 2 4 1013.8 - 0.0 - - - - - - -
22/02:00pm 18.8 ESE 2 3 1013.8 - 0.0 - - - - - - -
22/01:30pm 19.1 ENE 2 4 1014.0 - 0.0 - - - - - - -
22/01:00pm 19.5 SE 1 2 1014.4 - 0.0 - - - - - - -
22/12:30pm 19.1 SE 3 4 1014.8 - 0.0 - - - - - - -
22/12:00pm 19.1 S 3 4 1015.0 - 0.0 - - - - - - -
22/11:30am 19.7 NNW 2 3 1015.3 - 0.0 - - - - - - -
22/11:00am 19.7 NW 2 4 1015.5 - 0.0 - - - - - - -
22/10:30am 18.9 WSW 3 6 1015.8 - 0.0 - - - - - - -
22/10:00am 18.3 WNW 4 7 1015.6 - 0.0 - - - - - - -
22/09:30am 18.0 SW 5 9 1016.1 - 0.0 - - - - - - -
22/09:00am 16.8 S 5 8 1015.4 - 0.0 - - - - - - -
22/08:30am 18.1 W 4 10 1014.8 - 0.0 - - - - - - -
22/08:00am 18.7 W 2 5 1014.2 - 0.0 - - - - - - -
22/07:30am 17.7 W 3 5 1014.1 - 0.0 - - - - - - -
22/07:00am 17.0 NW 1 3 1013.6 - 0.0 - - - - - - -
22/06:30am 16.6 S 1 3 1013.5 - 0.0 - - - - - - -
22/06:00am 16.9 CALM 0 0 1013.3 - 0.0 - - - - - - -
22/05:30am 17.0 NNE 1 5 1013.5 - 0.0 - - - - - - -
22/05:00am 17.9 N 3 4 1013.4 - 0.0 - - - - - - -
22/04:30am 17.3 NNE 2 4 1013.4 - 0.0 - - - - - - -
22/04:00am 16.9 NNW 1 4 1013.3 - 0.0 - - - - - - -
22/03:30am 16.5 N 3 5 1013.4 - 0.0 - - - - - - -
22/03:00am 14.4 E 2 3 1013.5 - 0.0 - - - - - - -
22/02:30am 16.2 N 2 4 1013.9 - 0.0 - - - - - - -
22/02:00am 14.3 E 2 3 1014.1 - 0.0 - - - - - - -
22/01:30am 14.4 E 1 2 1014.4 - 0.0 - - - - - - -
22/01:00am 15.5 CALM 0 0 1014.5 - 0.0 - - - - - - -
22/12:30am 14.1 CALM 0 0 1014.7 - 0.0 - - - - - - -
22/12:00am 14.6 CALM 0 1 1014.6 - 0.0 - - - - - - -
 
Date/Time
EST
Temp

°C
Wind Pressure Rain
since 9am
mm
Weather Cloud Vis
km
Sea
Height
m
Swell
Dir
 
Speed
knots
Gust
knots
hPa Trend Height
m
Period
s
Dir
21/11:30pm 14.7 SSW 1 3 1014.8 - 0.0 - - - - - - -
21/11:00pm 12.6 CALM 0 3 1014.8 - 0.0 - - - - - - -
21/10:30pm 13.4 CALM 0 0 1015.5 - 0.0 - - - - - - -
21/10:00pm 12.9 CALM 0 0 1015.6 - 0.0 - - - - - - -
21/09:30pm 12.8 CALM 0 0 1015.9 - 0.0 - - - - - - -
21/09:00pm 12.7 NNW 1 2 1016.1 - 0.0 - - - - - - -
21/08:30pm 13.0 CALM 0 0 1016.4 - 0.0 - - - - - - -
21/08:00pm 13.6 NNE 3 4 1016.2 - 0.0 - - - - - - -
21/07:30pm 13.5 NNE 3 4 1016.6 - 0.0 - - - - - - -
21/07:00pm 13.4 NNE 3 5 1016.6 - 0.0 - - - - - - -
21/06:30pm 13.8 ENE 1 2 1016.8 - 0.0 - - - - - - -
21/06:00pm 14.6 CALM 0 0 1016.6 - 0.0 - - - - - - -
21/05:30pm 16.0 ESE 1 3 1016.4 - 0.0 - - - - - - -
21/05:00pm 17.1 E 3 5 1015.9 - 0.0 - - - - - - -
21/04:30pm 18.6 E 2 4 1015.9 - 0.0 - - - - - - -
21/04:00pm 19.2 E 3 4 1016.0 - 0.0 - - - - - - -
21/03:30pm 19.3 ENE 4 6 1016.2 - 0.0 - - - - - - -
21/03:00pm 19.2 E 4 7 1016.6 - 0.0 - - - - - - -
21/02:30pm 19.2 ENE 3 5 1017.0 - 0.0 - - - - - - -
21/02:00pm 19.1 ENE 2 4 1017.1 - 0.0 - - - - - - -
21/01:30pm 18.9 NE 2 3 1017.7 - 0.0 - - - - - - -
21/01:00pm 18.8 NE 1 2 1018.1 - 0.0 - - - - - - -
21/12:30pm 18.5 NNE 2 4 1018.6 - 0.0 - - - - - - -
21/12:00pm 18.4 NE 2 4 1018.9 - 0.0 - - - - - - -
21/11:30am 17.9 NNW 2 3 1019.3 - 0.0 - - - - - - -
21/11:00am 17.4 N 3 4 1019.7 - 0.0 - - - - - - -
21/10:30am 16.1 N 2 3 1020.3 - 0.0 - - - - - - -
21/10:00am 15.0 N 3 4 1020.3 - 0.0 - - - - - - -
21/09:30am 14.8 NNE 1 3 1020.3 - 0.0 - - - - - - -
21/09:00am 13.6 WNW 2 3 1020.6 - 0.0 - - - - - - -
21/08:30am 12.9 NNW 1 2 1020.6 - 0.0 - - - - - - -
21/08:00am 11.0 CALM 0 2 1020.5 - 0.0 - - - - - - -
21/07:30am 9.6 CALM 0 0 1020.3 - 0.0 - - - - - - -
21/07:00am 8.6 CALM 0 0 1020.1 - 0.0 - - - - - - -
21/06:30am 8.9 CALM 0 2 1019.8 - 0.0 - - - - - - -
21/06:00am 8.6 N 3 4 1019.5 - 0.0 - - - - - - -
21/05:30am 8.8 NNE 1 2 1019.3 - 0.0 - - - - - - -
21/05:00am 9.3 N 2 4 1019.1 - 0.0 - - - - - - -
21/04:30am 9.0 N 5 7 1019.0 - 0.0 - - - - - - -
21/04:00am 9.1 NW 2 3 1018.7 - 0.0 - - - - - - -
21/03:30am 9.6 NNW 1 3 1018.7 - 0.0 - - - - - - -
21/03:00am 9.8 N 2 4 1018.6 - 0.0 - - - - - - -
21/02:30am 9.7 CALM 0 0 1018.9 - 0.0 - - - - - - -
21/02:00am 9.7 CALM 0 2 1018.9 - 0.0 - - - - - - -
21/01:30am 9.5 NNW 3 5 1019.0 - 0.0 - - - - - - -
21/01:00am 9.5 N 5 6 1018.8 - 0.0 - - - - - - -
21/12:30am 10.2 N 5 6 1018.8 - 0.0 - - - - - - -
21/12:00am 10.9 N 6 7 1018.7 - 0.0 - - - - - - -
 
Date/Time
EST
Temp

°C
Wind Pressure Rain
since 9am
mm
Weather Cloud Vis
km
Sea
Height
m
Swell
Dir
 
Speed
knots
Gust
knots
hPa Trend Height
m
Period
s
Dir
20/11:30pm 11.1 N 6 7 1018.9 - 0.0 - - - - - - -
20/11:00pm 10.3 N 5 6 1018.9 - 0.0 - - - - - - -
20/10:30pm 10.3 N 4 6 1019.1 - 0.0 - - - - - - -

Other Formats:

Comma delimited format used in spreadsheet applications
http://www.bom.gov.au/fwo/IDV60701/IDV60701.95918.axf

JavaScript Object Notation format (JSON) in row-major order
http://www.bom.gov.au/fwo/IDV60701/IDV60701.95918.json